This is the latest recevied weather packets stored in our database for station/object WA9AFM. If no packets are shown the sender has not sent any weather packets the latest 10 day(s).
| Time | Temp. | Humidity | Pressure | Rain* | Wind** | Luminosity | Snow |
|---|---|---|---|---|---|---|---|
| 1787427689 | 35° C | 39% | 1010.3 hPa | 0 mm | - | - | - |
| 1787426788 | 35.56° C | 36% | 1010.8 hPa | 0 mm | - | - | - |
| 1787425887 | 35° C | 41% | 1011.3 hPa | 0 mm | - | - | - |
| 1787424987 | 35° C | 41% | 1011.3 hPa | 0 mm | - | - | - |
| 1787424088 | 35.56° C | 38% | 1011 hPa | 0 mm | - | - | - |
| 1787423187 | 35.56° C | 38% | 1010.6 hPa | 0 mm | - | - | - |
| 1787422289 | 35.56° C | 39% | 1010.6 hPa | 0 mm | - | - | - |
| 1787421388 | 35° C | 39% | 1010.8 hPa | 0 mm | - | - | - |
| 1787420487 | 33.89° C | 43% | 1011.1 hPa | 0 mm | - | - | - |
| 1787419588 | 33.33° C | 42% | 1011.8 hPa | 0 mm | - | - | - |
| 1787418687 | 32.78° C | 44% | 1011.9 hPa | 0 mm | - | - | - |
| 1787417787 | 32.78° C | 47% | 1012 hPa | 0 mm | - | - | - |
| 1787416888 | 32.22° C | 48% | 1012.1 hPa | 0 mm | - | - | - |
| 1787415988 | 31.67° C | 50% | 1012.2 hPa | 0 mm | - | - | - |
| 1787415087 | 30.56° C | 51% | 1012.1 hPa | 0 mm | - | - | - |
| 1787414187 | 30° C | 52% | 1012.1 hPa | 0 mm | - | - | - |
| 1787413288 | 28.89° C | 56% | 1012.2 hPa | 0 mm | - | - | - |
| 1787412387 | 27.78° C | 59% | 1012.4 hPa | 0 mm | - | - | - |
| 1787411489 | 27.22° C | 61% | 1012.4 hPa | 0 mm | - | - | - |
| 1787410588 | 27.22° C | 60% | 1012.2 hPa | 0 mm | - | - | - |
| 1787409689 | 26.67° C | 61% | 1012 hPa | 0 mm | - | - | - |
| 1787408788 | 26.11° C | 62% | 1012.1 hPa | 0 mm | - | - | - |
| 1787407888 | 26.11° C | 61% | 1012.2 hPa | 0 mm | - | - | - |
| 1787406989 | 25.56° C | 61% | 1011.8 hPa | 0 mm | - | - | - |
| 1787406088 | 25.56° C | 63% | 1011.8 hPa | 0 mm | - | - | - |
* Rain latest hour (hover to see other rain measurements)
** Current wind speed in m/s (hover to see current wind gust speed)